createdAt,value
2023-02-13T00:00:21.940Z,101423.84
2023-02-13T00:01:24.409Z,101426.25
2023-02-13T00:02:26.245Z,101429.09
2023-02-13T00:03:28.166Z,101429.19
2023-02-13T00:04:29.945Z,101425.69
2023-02-13T00:05:31.858Z,101429.34
2023-02-13T00:06:33.669Z,101436.41
2023-02-13T00:07:35.515Z,101432.03
2023-02-13T00:08:37.385Z,101433.03
2023-02-13T00:09:39.709Z,101429.59
2023-02-13T00:10:41.561Z,101428.66
2023-02-13T00:11:43.384Z,101427.78
2023-02-13T00:12:45.180Z,101432.28
2023-02-13T00:13:47.028Z,101427.91
2023-02-13T00:14:48.834Z,101411.94
2023-02-13T00:15:59.140Z,101433.25
2023-02-13T00:17:01.045Z,101433.03
2023-02-13T00:18:03.654Z,101438.63
2023-02-13T00:19:05.559Z,101436.91
2023-02-13T00:20:08.234Z,101432.53
2023-02-13T00:21:12.561Z,101429.88
2023-02-13T00:22:16.715Z,101423.69
2023-02-13T00:23:18.510Z,101429.03
2023-02-13T00:24:20.431Z,101431.84
2023-02-13T00:25:22.437Z,101431.00
2023-02-13T00:26:24.950Z,101439.16
2023-02-13T00:27:26.740Z,101411.38
2023-02-13T00:28:28.680Z,101426.63
2023-02-13T00:29:30.628Z,101425.78
2023-02-13T00:30:32.474Z,101412.81
2023-02-13T00:31:34.316Z,101418.00
2023-02-13T00:32:36.113Z,101416.47
2023-02-13T00:33:39.000Z,101413.91
2023-02-13T00:34:40.969Z,101427.72
2023-02-13T00:35:42.728Z,101413.50
2023-02-13T00:36:44.565Z,101410.50
2023-02-13T00:37:46.384Z,101410.50
2023-02-13T00:38:49.023Z,101410.13
2023-02-13T00:39:50.916Z,101409.25
2023-02-13T00:40:53.588Z,101409.25
2023-02-13T00:41:55.376Z,101403.06
2023-02-13T00:42:57.412Z,101394.59
2023-02-13T00:43:59.289Z,101407.56
2023-02-13T00:45:01.196Z,101406.03
2023-02-13T00:46:05.409Z,101404.88
2023-02-13T00:47:07.281Z,101403.84
2023-02-13T00:48:09.094Z,101417.44
2023-02-13T00:49:11.017Z,101413.06
2023-02-13T00:50:12.777Z,101415.75
2023-02-13T00:51:14.729Z,101407.84
2023-02-13T00:52:16.540Z,101415.03
2023-02-13T00:53:19.952Z,101416.03
2023-02-13T00:54:22.257Z,101413.19
2023-02-13T00:55:24.128Z,101413.19
2023-02-13T00:56:25.899Z,101404.00
2023-02-13T00:57:27.769Z,101408.00
2023-02-13T00:58:29.650Z,101381.81
2023-02-13T00:59:32.312Z,101412.47
2023-02-13T01:00:35.449Z,101406.69
2023-02-13T01:01:37.250Z,101412.63
2023-02-13T01:02:39.016Z,101410.06
2023-02-13T01:03:41.259Z,101411.78
2023-02-13T01:04:43.082Z,101405.59
2023-02-13T01:05:45.384Z,101406.69
2023-02-13T01:06:47.148Z,101411.78
2023-02-13T01:07:50.237Z,101394.81
2023-02-13T01:08:52.019Z,101393.84
2023-02-13T01:09:53.892Z,101410.94
2023-02-13T01:10:56.756Z,101404.72
2023-02-13T01:11:59.040Z,101402.44
2023-02-13T01:13:00.997Z,101410.94
2023-02-13T01:14:03.096Z,101405.38
2023-02-13T01:15:06.380Z,101413.75
2023-02-13T01:16:08.449Z,101410.06
2023-02-13T01:17:10.374Z,101418.22
2023-02-13T01:18:16.715Z,101417.50
2023-02-13T01:19:18.494Z,101412.59
2023-02-13T01:20:20.560Z,101424.72
2023-02-13T01:21:23.846Z,101418.22
2023-02-13T01:22:28.117Z,101411.88
2023-02-13T01:23:34.827Z,101416.69
2023-02-13T01:24:36.806Z,101410.63
2023-02-13T01:25:42.851Z,101412.03
2023-02-13T01:26:44.850Z,101404.41
2023-02-13T01:27:47.806Z,101417.41
2023-02-13T01:28:55.504Z,101414.00
2023-02-13T01:29:57.477Z,101414.84
2023-02-13T01:30:59.888Z,101417.50
2023-02-13T01:32:05.150Z,101410.47
2023-02-13T01:33:07.097Z,101416.81
2023-02-13T01:34:08.979Z,101394.50
2023-02-13T01:35:13.259Z,101415.97
2023-02-13T01:36:15.223Z,101413.41
2023-02-13T01:37:17.259Z,101415.97
2023-02-13T01:38:20.261Z,101419.63
2023-02-13T01:39:22.049Z,101419.63
2023-02-13T01:40:23.868Z,101413.41
2023-02-13T01:41:27.246Z,101423.28
2023-02-13T01:42:31.420Z,101425.09
2023-02-13T01:43:51.200Z,101419.63
2023-02-13T01:44:58.712Z,101427.25
2023-02-13T01:46:01.929Z,101427.50
2023-02-13T01:47:03.776Z,101424.00
2023-02-13T01:48:11.356Z,101422.44
2023-02-13T01:49:20.951Z,101418.22
2023-02-13T01:50:35.210Z,101420.47
2023-02-13T01:51:37.897Z,101412.59
2023-02-13T01:52:46.722Z,101425.81
2023-02-13T01:54:01.221Z,101407.63
2023-02-13T01:55:04.916Z,101424.72
2023-02-13T01:56:14.060Z,101415.09
2023-02-13T01:57:22.413Z,101410.75
2023-02-13T01:58:29.735Z,101419.63
2023-02-13T01:59:41.086Z,101400.72
2023-02-13T02:00:43.794Z,101409.75
2023-02-13T02:01:46.013Z,101417.94
2023-02-13T02:02:55.800Z,101411.88
2023-02-13T02:04:11.781Z,101409.75
2023-02-13T02:05:16.008Z,101407.22
2023-02-13T02:06:31.633Z,101413.97
2023-02-13T02:07:34.523Z,101413.69
2023-02-13T02:08:40.972Z,101413.97
2023-02-13T02:09:45.513Z,101415.66
2023-02-13T02:10:48.984Z,101421.88
2023-02-13T02:11:53.647Z,101414.09
2023-02-13T02:13:26.231Z,101419.63
2023-02-13T02:14:28.894Z,101418.78
2023-02-13T02:15:32.049Z,101405.81
2023-02-13T02:16:33.850Z,101399.28
2023-02-13T02:17:38.431Z,101411.44
2023-02-13T02:18:40.249Z,101405.22
2023-02-13T02:19:56.450Z,101405.34
2023-02-13T02:21:47.498Z,101400.19
2023-02-13T02:22:57.248Z,101407.78
2023-02-13T02:24:25.767Z,101408.94
2023-02-13T02:25:52.108Z,101410.75
2023-02-13T02:27:20.829Z,101415.25
2023-02-13T02:28:58.236Z,101398.59
2023-02-13T02:30:51.376Z,101408.78
2023-02-13T02:32:23.190Z,101415.44
2023-02-13T02:33:55.280Z,101417.41
2023-02-13T02:35:23.944Z,101419.38
2023-02-13T02:36:44.920Z,101422.44
2023-02-13T02:38:05.219Z,101415.53
2023-02-13T02:39:14.378Z,101410.13
2023-02-13T02:40:46.548Z,101423.84
2023-02-13T02:42:20.336Z,101419.75
2023-02-13T02:43:33.954Z,101418.47
2023-02-13T02:44:51.433Z,101422.13
2023-02-13T02:46:11.011Z,101426.06
2023-02-13T02:47:49.740Z,101426.63
2023-02-13T02:49:22.312Z,101427.50
2023-02-13T02:50:27.762Z,101420.44
2023-02-13T02:51:44.184Z,101416.34
2023-02-13T02:53:04.702Z,101420.72
2023-02-13T02:54:41.018Z,101418.16
2023-02-13T02:55:56.645Z,101413.38
2023-02-13T02:57:06.194Z,101411.97
2023-02-13T02:58:44.390Z,101409.53
2023-02-13T03:00:06.647Z,101410.00
2023-02-13T03:01:32.390Z,101407.44
2023-02-13T03:02:53.777Z,101401.09
2023-02-13T03:04:16.626Z,101406.59
2023-02-13T03:05:41.764Z,101398.69
2023-02-13T03:06:51.884Z,101400.41
2023-02-13T03:07:53.701Z,101410.47
2023-02-13T03:09:20.839Z,101416.09
2023-02-13T03:10:47.207Z,101409.63
2023-02-13T03:12:13.626Z,101399.31
2023-02-13T03:13:28.817Z,101417.56
2023-02-13T03:14:30.648Z,101410.47
2023-02-13T03:15:35.477Z,101410.03
2023-02-13T03:16:55.796Z,101420.03
2023-02-13T03:18:16.687Z,101420.63
2023-02-13T03:19:48.147Z,101424.13
2023-02-13T03:21:29.663Z,101426.53
2023-02-13T03:22:58.018Z,101426.31
2023-02-13T03:24:20.633Z,101428.75
2023-02-13T03:25:41.084Z,101421.19
2023-02-13T03:26:58.054Z,101427.50
2023-02-13T03:28:22.815Z,101424.13
2023-02-13T03:29:46.310Z,101417.06
2023-02-13T03:31:21.269Z,101405.13
2023-02-13T03:32:39.861Z,101411.34
2023-02-13T03:33:44.233Z,101417.78
2023-02-13T03:35:15.025Z,101406.78
2023-02-13T03:36:45.970Z,101401.16
2023-02-13T03:37:56.554Z,101387.72
2023-02-13T03:39:17.765Z,101397.50
2023-02-13T03:40:29.567Z,101400.31
2023-02-13T03:41:40.301Z,101404.09
2023-02-13T03:42:46.181Z,101406.91
2023-02-13T03:43:53.420Z,101399.84
2023-02-13T03:45:22.676Z,101400.84
2023-02-13T03:46:28.847Z,101402.25
2023-02-13T03:47:30.818Z,101393.53
2023-02-13T03:48:55.262Z,101388.25
2023-02-13T03:50:06.157Z,101389.03
2023-02-13T03:51:10.486Z,101397.19
2023-02-13T03:52:40.744Z,101390.47
2023-02-13T03:53:45.861Z,101377.16
2023-02-13T03:55:14.901Z,101378.59
2023-02-13T03:56:38.782Z,101385.22
2023-02-13T03:58:02.486Z,101378.88
2023-02-13T03:59:17.166Z,101373.97
2023-02-13T04:00:21.036Z,101330.31
2023-02-13T04:01:28.479Z,101384.66
2023-02-13T04:02:37.608Z,101378.31
2023-02-13T04:04:01.547Z,101375.38
2023-02-13T04:05:09.730Z,101392.44
2023-02-13T04:06:16.848Z,101388.16
2023-02-13T04:07:32.050Z,101392.69
2023-02-13T04:08:33.986Z,101384.50
2023-02-13T04:09:41.011Z,101390.13
2023-02-13T04:10:52.927Z,101387.34
2023-02-13T04:12:00.411Z,101405.94
2023-02-13T04:13:30.241Z,101397.63
2023-02-13T04:15:02.208Z,101400.63
2023-02-13T04:16:13.654Z,101395.41
2023-02-13T04:17:38.953Z,101393.25
2023-02-13T04:18:42.098Z,101407.94
2023-02-13T04:19:44.113Z,101405.66
2023-02-13T04:20:46.069Z,101407.63
2023-02-13T04:21:56.025Z,101407.06
2023-02-13T04:22:57.832Z,101419.44
2023-02-13T04:23:59.601Z,101417.75
2023-02-13T04:25:01.513Z,101431.13
2023-02-13T04:26:08.538Z,101433.22
2023-02-13T04:27:15.455Z,101432.97
2023-02-13T04:28:17.548Z,101438.31
2023-02-13T04:29:20.876Z,101427.41
2023-02-13T04:30:22.661Z,101440.28
2023-02-13T04:31:24.674Z,101418.28
2023-02-13T04:32:26.514Z,101428.13
2023-02-13T04:33:28.226Z,101434.91
2023-02-13T04:34:30.047Z,101407.25
2023-02-13T04:35:31.985Z,101424.09
2023-02-13T04:36:33.792Z,101425.19
2023-02-13T04:37:35.563Z,101421.81
2023-02-13T04:38:37.366Z,101427.88
2023-02-13T04:39:39.220Z,101418.03
2023-02-13T04:40:40.988Z,101429.56
2023-02-13T04:41:42.832Z,101421.69
2023-02-13T04:42:44.680Z,101416.19
2023-02-13T04:43:46.552Z,101420.00
2023-02-13T04:44:48.376Z,101409.13
2023-02-13T04:45:50.398Z,101420.56
2023-02-13T04:46:52.273Z,101418.84
2023-02-13T04:47:56.041Z,101418.41
2023-02-13T04:48:57.897Z,101415.19
2023-02-13T04:49:59.660Z,101405.47
2023-02-13T04:51:01.514Z,101413.50
2023-02-13T04:52:03.504Z,101408.16
2023-02-13T04:53:05.485Z,101387.28
2023-02-13T04:54:07.307Z,101401.97
2023-02-13T04:55:09.273Z,101396.03
2023-02-13T04:56:11.119Z,101406.47
2023-02-13T04:57:13.113Z,101418.84
2023-02-13T04:58:15.088Z,101412.34
2023-02-13T04:59:16.944Z,101395.75
2023-02-13T05:00:19.577Z,101398.44
2023-02-13T05:01:21.595Z,101405.63
2023-02-13T05:02:23.439Z,101404.66
2023-02-13T05:03:26.595Z,101411.09
2023-02-13T05:04:29.055Z,101404.16
2023-02-13T05:05:31.042Z,101380.22
2023-02-13T05:06:32.884Z,101426.88
2023-02-13T05:07:34.741Z,101390.41
2023-02-13T05:08:36.653Z,101404.31
2023-02-13T05:09:41.252Z,101396.28
2023-02-13T05:10:43.380Z,101395.75
2023-02-13T05:11:45.188Z,101401.97
2023-02-13T05:12:48.241Z,101409.13
2023-02-13T05:13:50.162Z,101410.81
2023-02-13T05:14:52.039Z,101386.75
2023-02-13T05:15:53.915Z,101409.00
2023-02-13T05:16:55.803Z,101403.66
2023-02-13T05:17:57.762Z,101395.75
2023-02-13T05:18:59.630Z,101386.75
2023-02-13T05:20:01.489Z,101391.25
2023-02-13T05:21:22.021Z,101403.78
2023-02-13T05:22:42.301Z,101396.91
2023-02-13T05:23:44.132Z,101388.63
2023-02-13T05:24:45.897Z,101396.91
2023-02-13T05:25:47.665Z,101391.00
2023-02-13T05:26:49.634Z,101388.69
2023-02-13T05:27:51.394Z,101366.03
2023-02-13T05:29:12.019Z,101361.16
2023-02-13T05:30:14.613Z,101385.66
2023-02-13T05:31:16.563Z,101391.81
2023-02-13T05:32:18.529Z,101387.47
2023-02-13T05:33:20.396Z,101382.25
2023-02-13T05:34:24.257Z,101381.38
2023-02-13T05:35:26.211Z,101400.84
2023-02-13T05:36:28.127Z,101378.97
2023-02-13T05:37:29.958Z,101367.03
2023-02-13T05:38:32.131Z,101372.91
2023-02-13T05:39:34.109Z,101402.69
2023-02-13T05:40:35.904Z,101393.22
2023-02-13T05:41:37.712Z,101373.34
2023-02-13T05:42:40.738Z,101409.13
2023-02-13T05:43:42.596Z,101408.16
2023-02-13T05:44:44.364Z,101408.16
2023-02-13T05:45:46.501Z,101393.94
2023-02-13T05:46:49.396Z,101399.69
2023-02-13T05:47:51.210Z,101395.63
2023-02-13T05:48:53.036Z,101397.34
2023-02-13T05:49:54.838Z,101389.41
2023-02-13T05:50:57.012Z,101369.38
2023-02-13T05:51:59.224Z,101373.75
2023-02-13T05:53:01.094Z,101390.28
2023-02-13T05:54:03.106Z,101396.63
2023-02-13T05:55:05.305Z,101394.31
2023-02-13T05:56:07.589Z,101404.66
2023-02-13T05:57:09.496Z,101360.59
2023-02-13T05:58:12.004Z,101398.16
2023-02-13T05:59:14.276Z,101399.84
2023-02-13T06:00:16.693Z,101398.16
2023-02-13T06:01:18.955Z,101391.97
2023-02-13T06:02:20.699Z,101390.13
2023-02-13T06:03:23.319Z,101383.34
2023-02-13T06:04:25.140Z,101400.84
2023-02-13T06:05:26.897Z,101405.22
2023-02-13T06:06:28.706Z,101379.38
2023-02-13T06:07:30.584Z,101361.50
2023-02-13T06:08:32.553Z,101409.59
2023-02-13T06:09:34.372Z,101398.88
2023-02-13T06:10:36.348Z,101399.75
2023-02-13T06:11:38.129Z,101386.22
2023-02-13T06:12:39.982Z,101397.63
2023-02-13T06:13:41.939Z,101403.69
2023-02-13T06:14:43.727Z,101399.06
2023-02-13T06:15:46.140Z,101388.22
2023-02-13T06:16:47.926Z,101403.19
2023-02-13T06:17:49.752Z,101410.25
2023-02-13T06:18:51.617Z,101396.63
2023-02-13T06:19:53.462Z,101388.31
2023-02-13T06:20:55.614Z,101397.78
2023-02-13T06:21:57.869Z,101389.47
2023-02-13T06:22:59.622Z,101402.59
2023-02-13T06:24:01.481Z,101399.63
2023-02-13T06:25:03.727Z,101381.00
2023-02-13T06:26:07.621Z,101400.78
2023-02-13T06:27:09.480Z,101395.03
2023-02-13T06:28:11.360Z,101390.06
2023-02-13T06:29:13.254Z,101399.84
2023-02-13T06:30:16.005Z,101404.06
2023-02-13T06:31:17.907Z,101397.44
2023-02-13T06:32:19.870Z,101399.72
2023-02-13T06:33:21.709Z,101388.75
2023-02-13T06:34:23.491Z,101400.88
2023-02-13T06:35:25.821Z,101406.81
2023-02-13T06:36:27.645Z,101397.53
2023-02-13T06:37:29.635Z,101397.25
2023-02-13T06:38:32.136Z,101390.19
2023-02-13T06:39:33.927Z,101372.00
2023-02-13T06:40:35.725Z,101391.06
2023-02-13T06:41:37.516Z,101390.78
2023-02-13T06:42:39.525Z,101392.34
2023-02-13T06:43:41.406Z,101395.56
2023-02-13T06:44:43.227Z,101390.66
2023-02-13T06:45:47.016Z,101392.88
2023-02-13T06:46:48.907Z,101402.97
2023-02-13T06:47:51.887Z,101399.94
2023-02-13T06:48:54.465Z,101400.69
2023-02-13T06:49:56.351Z,101390.25
2023-02-13T06:50:58.540Z,101405.66
2023-02-13T06:52:00.588Z,101405.94
2023-02-13T06:53:02.442Z,101418.78
2023-02-13T06:54:04.322Z,101413.25
2023-02-13T06:55:06.545Z,101416.66
2023-02-13T06:56:11.236Z,101408.75
2023-02-13T06:57:13.015Z,101428.94
2023-02-13T06:58:14.888Z,101431.50
2023-02-13T06:59:16.697Z,101429.22
2023-02-13T07:00:19.602Z,101430.38
2023-02-13T07:01:21.674Z,101447.03
2023-02-13T07:02:23.515Z,101447.03
2023-02-13T07:03:25.414Z,101436.31
2023-02-13T07:04:28.144Z,101444.19
2023-02-13T07:05:30.011Z,101431.06
2023-02-13T07:06:33.443Z,101453.09
2023-02-13T07:07:36.646Z,101446.59
2023-02-13T07:08:38.517Z,101424.84
2023-02-13T07:09:41.198Z,101448.16
2023-02-13T07:10:43.310Z,101437.72
2023-02-13T07:11:45.151Z,101443.63
2023-02-13T07:12:53.924Z,101448.00
2023-02-13T07:14:09.453Z,101444.09
2023-02-13T07:15:11.873Z,101437.84
2023-02-13T07:16:14.512Z,101462.00
2023-02-13T07:17:16.412Z,101455.78
2023-02-13T07:18:18.274Z,101475.41
2023-02-13T07:19:20.032Z,101471.88
2023-02-13T07:20:21.928Z,101456.63
2023-02-13T07:21:23.856Z,101470.91
2023-02-13T07:22:25.695Z,101475.41
2023-02-13T07:23:27.480Z,101458.34
2023-02-13T07:24:29.348Z,101476.28
2023-02-13T07:25:31.697Z,101472.72
2023-02-13T07:26:33.518Z,101476.53
2023-02-13T07:27:35.612Z,101486.03
2023-02-13T07:28:37.484Z,101478.97
2023-02-13T07:29:39.360Z,101486.03
2023-02-13T07:30:41.179Z,101481.66
2023-02-13T07:31:43.058Z,101491.09
2023-02-13T07:32:44.950Z,101487.72
2023-02-13T07:33:49.417Z,101470.47
2023-02-13T07:35:01.261Z,101499.00
2023-02-13T07:36:05.031Z,101475.84
2023-02-13T07:37:06.880Z,101478.13
2023-02-13T07:38:11.214Z,101479.09
2023-02-13T07:39:13.023Z,101487.97
2023-02-13T07:40:14.933Z,101472.31
2023-02-13T07:41:16.741Z,101484.47
2023-02-13T07:42:18.970Z,101482.63
2023-02-13T07:43:21.162Z,101487.16
2023-02-13T07:44:22.994Z,101476.00
2023-02-13T07:45:24.766Z,101489.41
2023-02-13T07:46:26.643Z,101497.03
2023-02-13T07:47:28.418Z,101487.97
2023-02-13T07:48:31.740Z,101478.09
2023-02-13T07:49:33.812Z,101487.84
2023-02-13T07:50:35.583Z,101493.22
2023-02-13T07:51:37.461Z,101485.75
2023-02-13T07:52:39.357Z,101468.22
2023-02-13T07:53:41.312Z,101474.44
2023-02-13T07:54:47.731Z,101461.44
2023-02-13T07:55:49.676Z,101478.81
2023-02-13T07:56:51.481Z,101480.09
2023-02-13T07:57:53.322Z,101471.75
2023-02-13T07:58:55.522Z,101476.53
2023-02-13T07:59:57.524Z,101468.50
2023-02-13T08:00:59.393Z,101463.69
2023-02-13T08:02:01.234Z,101480.63
2023-02-13T08:03:03.205Z,101492.25
2023-02-13T08:04:05.199Z,101479.66
2023-02-13T08:05:08.005Z,101487.00
2023-02-13T08:06:10.165Z,101490.53
2023-02-13T08:07:12.795Z,101485.19
2023-02-13T08:08:14.619Z,101493.22
2023-02-13T08:09:41.010Z,101483.47
2023-02-13T08:11:01.160Z,101479.53
2023-02-13T08:12:03.537Z,101482.22
2023-02-13T08:13:06.981Z,101496.16
2023-02-13T08:14:09.302Z,101495.63
2023-02-13T08:15:15.677Z,101505.50
2023-02-13T08:16:17.576Z,101490.81
2023-02-13T08:17:19.682Z,101487.97
2023-02-13T08:18:21.546Z,101493.50
2023-02-13T08:19:24.092Z,101508.34
2023-02-13T08:20:26.112Z,101493.09
2023-02-13T08:21:28.007Z,101495.91
2023-02-13T08:22:29.781Z,101520.75
2023-02-13T08:23:31.732Z,101498.44
2023-02-13T08:24:33.774Z,101504.66
2023-02-13T08:25:36.109Z,101509.16
2023-02-13T08:26:38.440Z,101510.03
2023-02-13T08:27:40.206Z,101510.03
2023-02-13T08:28:42.119Z,101510.88
2023-02-13T08:29:44.215Z,101513.53
2023-02-13T08:30:46.150Z,101502.81
2023-02-13T08:31:48.030Z,101500.13
2023-02-13T08:32:54.261Z,101499.28
2023-02-13T08:33:57.490Z,101491.97
2023-02-13T08:34:59.353Z,101481.22
2023-02-13T08:36:03.922Z,101493.78
2023-02-13T08:37:05.711Z,101487.69
2023-02-13T08:38:07.493Z,101493.66
2023-02-13T08:39:10.736Z,101496.44
2023-02-13T08:40:12.943Z,101497.31
2023-02-13T08:42:22.413Z,101486.31
2023-02-13T08:43:24.132Z,101479.53
2023-02-13T08:44:26.065Z,101498.16
2023-02-13T08:45:28.288Z,101503.50
2023-02-13T08:46:30.166Z,101498.16
2023-02-13T08:47:32.407Z,101498.16
2023-02-13T08:48:34.716Z,101488.84
2023-02-13T08:49:36.791Z,101476.53
2023-02-13T08:50:38.789Z,101512.44
2023-02-13T08:51:40.615Z,101515.13
2023-02-13T08:52:42.407Z,101514.25
2023-02-13T08:53:44.207Z,101525.84
2023-02-13T08:54:46.052Z,101529.53
2023-02-13T08:55:55.743Z,101531.22
2023-02-13T08:56:58.801Z,101531.91
2023-02-13T08:58:04.777Z,101527.81
2023-02-13T08:59:06.621Z,101523.28
2023-02-13T09:00:09.145Z,101535.44
2023-02-13T09:01:11.111Z,101536.59
2023-02-13T09:02:13.168Z,101531.22
2023-02-13T09:03:15.594Z,101541.94
2023-02-13T09:04:18.403Z,101542.94
2023-02-13T09:05:20.293Z,101536.97
2023-02-13T09:06:23.078Z,101541.09
2023-02-13T09:07:25.471Z,101551.53
2023-02-13T09:08:27.339Z,101536.44
2023-02-13T09:09:29.195Z,101534.19
2023-02-13T09:10:32.570Z,101522.75
2023-02-13T09:11:34.528Z,101543.22
2023-02-13T09:12:36.507Z,101543.06
2023-02-13T09:13:38.407Z,101545.63
2023-02-13T09:14:40.601Z,101555.09
2023-02-13T09:15:43.013Z,101545.63
2023-02-13T09:16:44.858Z,101548.03
2023-02-13T09:17:46.670Z,101546.31
2023-02-13T09:18:49.453Z,101539.25
2023-02-13T09:19:51.326Z,101539.13
2023-02-13T09:21:08.194Z,101548.72
2023-02-13T09:22:09.959Z,101552.13
2023-02-13T09:23:11.756Z,101550.69
2023-02-13T09:24:13.769Z,101552.41
2023-02-13T09:25:15.880Z,101558.59
2023-02-13T09:26:20.429Z,101561.44
2023-02-13T09:27:22.615Z,101557.06
2023-02-13T09:28:24.544Z,101565.81
2023-02-13T09:29:30.433Z,101563.13
2023-02-13T09:30:32.417Z,101575.56
2023-02-13T09:31:34.403Z,101570.19
2023-02-13T09:32:37.829Z,101565.38
2023-02-13T09:33:39.604Z,101577.25
2023-02-13T09:34:41.438Z,101589.81
2023-02-13T09:35:43.903Z,101583.63
2023-02-13T09:36:45.712Z,101587.13
2023-02-13T09:37:47.596Z,101571.91
2023-02-13T09:38:53.692Z,101593.47
2023-02-13T09:39:55.676Z,101600.44
2023-02-13T09:41:03.389Z,101598.72
2023-02-13T09:42:30.033Z,101589.69
2023-02-13T09:43:34.656Z,101591.25
2023-02-13T09:44:43.498Z,101592.38
2023-02-13T09:45:47.918Z,101601.84
2023-02-13T09:46:49.902Z,101601.84
2023-02-13T09:47:52.213Z,101604.09
2023-02-13T09:48:56.670Z,101606.66
2023-02-13T09:50:23.947Z,101608.63
2023-02-13T09:51:27.802Z,101609.50
2023-02-13T09:52:34.124Z,101615.97
2023-02-13T09:53:37.101Z,101629.38
2023-02-13T09:54:39.026Z,101624.69
2023-02-13T09:56:10.188Z,101628.84
2023-02-13T09:57:25.519Z,101635.19
2023-02-13T09:58:41.416Z,101626.44
2023-02-13T10:00:13.392Z,101637.47
2023-02-13T10:01:30.705Z,101628.44
2023-02-13T10:02:53.795Z,101630.41
2023-02-13T10:04:05.725Z,101631.53
2023-02-13T10:05:16.792Z,101647.34
2023-02-13T10:06:32.476Z,101643.81
2023-02-13T10:07:49.300Z,101634.91
2023-02-13T10:09:15.795Z,101639.28
2023-02-13T10:10:30.693Z,101640.16
2023-02-13T10:11:55.567Z,101647.78
2023-02-13T10:12:57.772Z,101647.06
2023-02-13T10:14:16.265Z,101646.09
2023-02-13T10:15:31.314Z,101657.25
2023-02-13T10:16:42.426Z,101653.69
2023-02-13T10:17:55.076Z,101656.38
2023-02-13T10:19:12.919Z,101656.25
2023-02-13T10:20:32.443Z,101644.81
2023-02-13T10:21:39.176Z,101671.38
2023-02-13T10:22:46.186Z,101664.31
2023-02-13T10:23:54.931Z,101665.69
2023-02-13T10:25:14.724Z,101671.50
2023-02-13T10:26:24.036Z,101657.53
2023-02-13T10:27:32.382Z,101675.88
2023-02-13T10:29:30.976Z,101673.63
2023-02-13T10:30:39.402Z,101678.63
2023-02-13T10:31:44.818Z,101679.88
2023-02-13T10:32:49.937Z,101682.94
2023-02-13T10:33:58.045Z,101694.41
2023-02-13T10:35:02.543Z,101690.88
2023-02-13T10:36:10.506Z,101700.75
2023-02-13T10:37:21.769Z,101692.59
2023-02-13T10:38:24.572Z,101702.44
2023-02-13T10:39:29.106Z,101699.91
2023-02-13T10:40:36.649Z,101697.63
2023-02-13T10:41:43.021Z,101705.28
2023-02-13T10:42:48.737Z,101680.81
2023-02-13T10:44:12.615Z,101698.50
2023-02-13T10:45:42.129Z,101713.41
2023-02-13T10:47:18.769Z,101713.84
2023-02-13T10:48:46.345Z,101724.72
2023-02-13T10:49:55.836Z,101715.53
2023-02-13T10:51:10.019Z,101720.47
2023-02-13T10:52:50.398Z,101724.59
2023-02-13T10:54:10.551Z,101717.25
2023-02-13T10:55:49.093Z,101727.00
2023-02-13T10:56:51.356Z,101728.81
2023-02-13T10:58:19.633Z,101729.97
2023-02-13T10:59:24.194Z,101730.25
2023-02-13T11:00:46.510Z,101714.88
2023-02-13T11:01:58.191Z,101739.00
2023-02-13T11:03:00.506Z,101738.28
2023-02-13T11:04:12.472Z,101732.22
2023-02-13T11:05:23.985Z,101736.00
2023-02-13T11:06:25.853Z,101740.25
2023-02-13T11:07:29.129Z,101746.91
2023-02-13T11:08:34.283Z,101727.88
2023-02-13T11:09:41.266Z,101721.41
2023-02-13T11:10:43.030Z,101744.22
2023-02-13T11:11:45.245Z,101740.63
2023-02-13T11:12:48.296Z,101744.31
2023-02-13T11:14:08.869Z,101742.25
2023-02-13T11:15:27.424Z,101742.78
2023-02-13T11:16:39.114Z,101735.59
2023-02-13T11:17:44.192Z,101722.50
2023-02-13T11:18:50.774Z,101728.81
2023-02-13T11:19:58.460Z,101734.19
2023-02-13T11:21:21.826Z,101736.88
2023-02-13T11:22:39.428Z,101729.09
2023-02-13T11:23:49.747Z,101737.31
2023-02-13T11:24:56.322Z,101731.50
2023-02-13T11:26:04.468Z,101747.47
2023-02-13T11:27:12.940Z,101735.88
2023-02-13T11:28:21.252Z,101728.81
2023-02-13T11:29:29.736Z,101735.88
2023-02-13T11:30:35.956Z,101741.25
2023-02-13T11:31:38.626Z,101736.38
2023-02-13T11:32:40.560Z,101744.06
2023-02-13T11:33:42.344Z,101746.91
2023-02-13T11:34:45.454Z,101742.34
2023-02-13T11:35:48.117Z,101743.44
2023-02-13T11:36:55.247Z,101741.63
2023-02-13T11:38:15.801Z,101747.19
2023-02-13T11:39:20.509Z,101744.66
2023-02-13T11:40:32.403Z,101761.59
2023-02-13T11:41:42.278Z,101759.91
2023-02-13T11:42:46.610Z,101755.38
2023-02-13T11:43:53.474Z,101745.16
2023-02-13T11:45:03.957Z,101760.16
2023-02-13T11:46:13.133Z,101755.38
2023-02-13T11:47:16.172Z,101768.66
2023-02-13T11:48:22.473Z,101775.16
2023-02-13T11:49:27.453Z,101770.63
2023-02-13T11:50:32.684Z,101776.00
2023-02-13T11:51:38.945Z,101779.56
2023-02-13T11:52:41.682Z,101776.88
2023-02-13T11:53:43.600Z,101776.88
2023-02-13T11:54:45.930Z,101780.53
2023-02-13T11:56:21.804Z,101793.69
2023-02-13T11:57:25.895Z,101789.59
2023-02-13T11:58:29.216Z,101790.72
2023-02-13T11:59:39.163Z,101791.56
2023-02-13T12:00:42.317Z,101802.47
2023-02-13T12:01:49.199Z,101799.78
2023-02-13T12:02:51.126Z,101815.16
2023-02-13T12:04:04.066Z,101816.88
2023-02-13T12:05:26.772Z,101812.94
2023-02-13T12:06:28.552Z,101828.06
2023-02-13T12:07:32.416Z,101820.81
2023-02-13T12:08:37.007Z,101830.28
2023-02-13T12:09:44.128Z,101841.88
2023-02-13T12:10:46.233Z,101826.63
2023-02-13T12:11:51.188Z,101833.97
2023-02-13T12:13:11.260Z,101836.66
2023-02-13T12:14:19.840Z,101840.75
2023-02-13T12:15:33.045Z,101847.13
2023-02-13T12:16:38.085Z,101847.84
2023-02-13T12:17:45.073Z,101829.00
2023-02-13T12:18:51.942Z,101830.34
2023-02-13T12:19:55.674Z,101854.91
2023-02-13T12:21:41.989Z,101852.06
2023-02-13T12:23:07.748Z,101857.50
2023-02-13T12:24:21.479Z,101854.09
2023-02-13T12:25:23.328Z,101858.75
2023-02-13T12:26:59.941Z,101858.03
2023-02-13T12:28:01.743Z,101856.19
2023-02-13T12:29:41.135Z,101865.94
2023-02-13T12:31:09.297Z,101862.03
2023-02-13T12:32:26.477Z,101868.50
2023-02-13T12:34:06.341Z,101867.69
2023-02-13T12:35:26.063Z,101862.53
2023-02-13T12:36:36.824Z,101867.69
2023-02-13T12:38:03.878Z,101875.84
2023-02-13T12:39:24.179Z,101883.03
2023-02-13T12:40:51.760Z,101883.63
2023-02-13T12:42:14.857Z,101881.94
2023-02-13T12:43:38.287Z,101892.94
2023-02-13T12:44:40.296Z,101893.66
2023-02-13T12:46:10.903Z,101890.13
2023-02-13T12:47:17.090Z,101885.00
2023-02-13T12:48:34.275Z,101880.34
2023-02-13T12:50:11.681Z,101892.81
2023-02-13T12:51:44.412Z,101886.47